sensor_id;sensor_type;location;lat;lon;timestamp;pressure;altitude;pressure_sealevel;temperature;humidity
9822;BME280;4950;46.042;14.472;2023-04-25T00:00:00;97289.72;;;11.52;89.50
9822;BME280;4950;46.042;14.472;2023-04-25T00:02:27;97288.91;;;11.51;89.12
9822;BME280;4950;46.042;14.472;2023-04-25T00:04:54;97284.31;;;11.46;89.58
9822;BME280;4950;46.042;14.472;2023-04-25T00:07:24;97288.69;;;11.46;89.55
9822;BME280;4950;46.042;14.472;2023-04-25T00:09:51;97282.88;;;11.44;89.85
9822;BME280;4950;46.042;14.472;2023-04-25T00:12:19;97284.69;;;11.43;89.76
9822;BME280;4950;46.042;14.472;2023-04-25T00:14:48;97285.47;;;11.44;89.73
9822;BME280;4950;46.042;14.472;2023-04-25T00:17:15;97287.28;;;11.37;89.64
9822;BME280;4950;46.042;14.472;2023-04-25T00:19:41;97287.06;;;11.38;89.71
9822;BME280;4950;46.042;14.472;2023-04-25T00:22:10;97281.84;;;11.38;89.92
9822;BME280;4950;46.042;14.472;2023-04-25T00:24:37;97283.66;;;11.38;90.17
9822;BME280;4950;46.042;14.472;2023-04-25T00:27:03;97280.66;;;11.34;90.28
9822;BME280;4950;46.042;14.472;2023-04-25T00:29:32;97274.84;;;11.32;90.17
9822;BME280;4950;46.042;14.472;2023-04-25T00:31:59;97273.25;;;11.31;90.30
9822;BME280;4950;46.042;14.472;2023-04-25T00:34:26;97272.41;;;11.24;89.93
9822;BME280;4950;46.042;14.472;2023-04-25T00:36:53;97268.22;;;11.23;90.20
9822;BME280;4950;46.042;14.472;2023-04-25T00:39:20;97271.81;;;11.22;89.97
9822;BME280;4950;46.042;14.472;2023-04-25T00:41:47;97275.59;;;11.19;90.39
9822;BME280;4950;46.042;14.472;2023-04-25T00:44:18;97277.97;;;11.21;89.72
9822;BME280;4950;46.042;14.472;2023-04-25T00:46:47;97274.22;;;11.23;89.81
9822;BME280;4950;46.042;14.472;2023-04-25T00:49:13;97277.84;;;11.29;89.08
9822;BME280;4950;46.042;14.472;2023-04-25T00:51:42;97272.22;;;11.25;89.02
9822;BME280;4950;46.042;14.472;2023-04-25T00:54:09;97279.59;;;11.22;89.77
9822;BME280;4950;46.042;14.472;2023-04-25T00:56:36;97279.59;;;11.22;89.65
9822;BME280;4950;46.042;14.472;2023-04-25T00:59:03;97278.38;;;11.18;89.75
9822;BME280;4950;46.042;14.472;2023-04-25T01:01:30;97276.94;;;11.09;89.88
9822;BME280;4950;46.042;14.472;2023-04-25T01:03:59;97283.50;;;11.04;90.29
9822;BME280;4950;46.042;14.472;2023-04-25T01:06:27;97294.91;;;11.03;89.82
9822;BME280;4950;46.042;14.472;2023-04-25T01:08:54;97295.28;;;11.00;89.70
9822;BME280;4950;46.042;14.472;2023-04-25T01:11:21;97292.06;;;10.98;89.38
9822;BME280;4950;46.042;14.472;2023-04-25T01:13:47;97288.63;;;10.91;89.24
9822;BME280;4950;46.042;14.472;2023-04-25T01:16:14;97288.59;;;10.84;89.19
9822;BME280;4950;46.042;14.472;2023-04-25T01:18:42;97286.44;;;10.88;89.17
9822;BME280;4950;46.042;14.472;2023-04-25T01:21:12;97284.38;;;10.83;88.70
9822;BME280;4950;46.042;14.472;2023-04-25T01:23:40;97286.44;;;10.88;89.24
9822;BME280;4950;46.042;14.472;2023-04-25T01:26:08;97284.63;;;10.89;89.45
9822;BME280;4950;46.042;14.472;2023-04-25T01:28:35;97280.03;;;10.91;89.17
9822;BME280;4950;46.042;14.472;2023-04-25T01:31:03;97282.81;;;10.89;88.94
9822;BME280;4950;46.042;14.472;2023-04-25T01:33:31;97285.59;;;10.87;88.75
9822;BME280;4950;46.042;14.472;2023-04-25T01:35:58;97292.00;;;10.85;88.74
9822;BME280;4950;46.042;14.472;2023-04-25T01:38:26;97298.97;;;10.84;88.86
9822;BME280;4950;46.042;14.472;2023-04-25T01:40:53;97300.53;;;10.79;88.48
9822;BME280;4950;46.042;14.472;2023-04-25T01:43:21;97292.28;;;10.69;88.82
9822;BME280;4950;46.042;14.472;2023-04-25T01:45:49;97304.84;;;10.65;88.49
9822;BME280;4950;46.042;14.472;2023-04-25T01:48:16;97305.63;;;10.65;88.68
9822;BME280;4950;46.042;14.472;2023-04-25T01:50:43;97301.44;;;10.64;88.69
9822;BME280;4950;46.042;14.472;2023-04-25T01:53:12;97311.84;;;10.64;88.80
9822;BME280;4950;46.042;14.472;2023-04-25T01:55:41;97294.28;;;10.66;88.56
9822;BME280;4950;46.042;14.472;2023-04-25T01:58:08;97305.28;;;10.69;88.81
9822;BME280;4950;46.042;14.472;2023-04-25T02:00:38;97300.25;;;10.67;88.46
9822;BME280;4950;46.042;14.472;2023-04-25T02:03:06;97292.47;;;10.67;88.97
9822;BME280;4950;46.042;14.472;2023-04-25T02:05:36;97301.31;;;10.73;89.03
9822;BME280;4950;46.042;14.472;2023-04-25T02:08:04;97305.69;;;10.72;88.79
9822;BME280;4950;46.042;14.472;2023-04-25T02:10:32;97304.06;;;10.71;88.62
9822;BME280;4950;46.042;14.472;2023-04-25T02:13:00;97300.69;;;10.71;88.46
9822;BME280;4950;46.042;14.472;2023-04-25T02:15:27;97298.47;;;10.67;88.83
9822;BME280;4950;46.042;14.472;2023-04-25T02:17:53;97299.78;;;10.57;89.11
9822;BME280;4950;46.042;14.472;2023-04-25T02:20:22;97311.72;;;10.51;89.22
9822;BME280;4950;46.042;14.472;2023-04-25T02:22:49;97309.56;;;10.55;89.49
9822;BME280;4950;46.042;14.472;2023-04-25T02:25:16;97308.56;;;10.56;89.12
9822;BME280;4950;46.042;14.472;2023-04-25T02:27:45;97310.56;;;10.60;88.45
9822;BME280;4950;46.042;14.472;2023-04-25T02:30:13;97302.78;;;10.60;88.50
9822;BME280;4950;46.042;14.472;2023-04-25T02:32:40;97309.41;;;10.63;88.38
9822;BME280;4950;46.042;14.472;2023-04-25T02:35:08;97306.63;;;10.64;88.48
9822;BME280;4950;46.042;14.472;2023-04-25T02:37:36;97304.59;;;10.60;88.73
9822;BME280;4950;46.042;14.472;2023-04-25T02:40:03;97304.41;;;10.61;89.05
9822;BME280;4950;46.042;14.472;2023-04-25T02:42:30;97304.66;;;10.66;89.29
9822;BME280;4950;46.042;14.472;2023-04-25T02:44:57;97305.63;;;10.65;89.25
9822;BME280;4950;46.042;14.472;2023-04-25T02:47:25;97304.66;;;10.66;89.41
9822;BME280;4950;46.042;14.472;2023-04-25T02:49:52;97296.88;;;10.66;89.51
9822;BME280;4950;46.042;14.472;2023-04-25T02:52:19;97305.81;;;10.64;89.52
9822;BME280;4950;46.042;14.472;2023-04-25T02:54:46;97302.78;;;10.60;90.04
9822;BME280;4950;46.042;14.472;2023-04-25T02:57:13;97295.44;;;10.64;90.16
9822;BME280;4950;46.042;14.472;2023-04-25T02:59:40;97294.28;;;10.66;89.93
9822;BME280;4950;46.042;14.472;2023-04-25T03:02:06;97289.47;;;10.70;90.13
9822;BME280;4950;46.042;14.472;2023-04-25T03:04:34;97297.69;;;10.74;90.23
9822;BME280;4950;46.042;14.472;2023-04-25T03:07:01;97288.50;;;10.71;89.88
9822;BME280;4950;46.042;14.472;2023-04-25T03:09:28;97290.13;;;10.72;89.95
9822;BME280;4950;46.042;14.472;2023-04-25T03:11:55;97298.28;;;10.69;90.08
9822;BME280;4950;46.042;14.472;2023-04-25T03:14:21;97300.69;;;10.71;90.01
9822;BME280;4950;46.042;14.472;2023-04-25T03:16:48;97298.09;;;10.71;90.63
9822;BME280;4950;46.042;14.472;2023-04-25T03:19:15;97299.88;;;10.70;90.48
9822;BME280;4950;46.042;14.472;2023-04-25T03:21:44;97296.47;;;10.70;90.85
9822;BME280;4950;46.042;14.472;2023-04-25T03:24:10;97292.06;;;10.70;90.30
9822;BME280;4950;46.042;14.472;2023-04-25T03:26:37;97292.91;;;10.71;90.60
9822;BME280;4950;46.042;14.472;2023-04-25T03:29:04;97296.72;;;10.75;90.03
9822;BME280;4950;46.042;14.472;2023-04-25T03:31:31;97300.91;;;10.76;90.28
9822;BME280;4950;46.042;14.472;2023-04-25T03:33:57;97302.72;;;10.75;89.78
9822;BME280;4950;46.042;14.472;2023-04-25T03:36:24;97304.31;;;10.76;89.87
9822;BME280;4950;46.042;14.472;2023-04-25T03:38:52;97299.13;;;10.76;89.72
9822;BME280;4950;46.042;14.472;2023-04-25T03:41:19;97302.53;;;10.77;89.40
9822;BME280;4950;46.042;14.472;2023-04-25T03:43:46;97308.41;;;10.64;90.28
9822;BME280;4950;46.042;14.472;2023-04-25T03:46:12;97308.22;;;10.65;90.35
9822;BME280;4950;46.042;14.472;2023-04-25T03:48:39;97314.44;;;10.64;90.50
9822;BME280;4950;46.042;14.472;2023-04-25T03:51:06;97306.56;;;10.58;90.06
9822;BME280;4950;46.042;14.472;2023-04-25T03:53:32;97315.28;;;10.50;90.07
9822;BME280;4950;46.042;14.472;2023-04-25T03:56:01;97311.88;;;10.43;90.07
9822;BME280;4950;46.042;14.472;2023-04-25T03:58:27;97322.16;;;10.36;89.25
9822;BME280;4950;46.042;14.472;2023-04-25T04:00:54;97324.22;;;10.41;89.78
9822;BME280;4950;46.042;14.472;2023-04-25T04:03:21;97319.66;;;10.43;89.51
9822;BME280;4950;46.042;14.472;2023-04-25T04:05:47;97323.47;;;10.47;89.81
9822;BME280;4950;46.042;14.472;2023-04-25T04:08:15;97320.31;;;10.52;89.04
9822;BME280;4950;46.042;14.472;2023-04-25T04:10:42;97321.09;;;10.52;88.50
9822;BME280;4950;46.042;14.472;2023-04-25T04:13:10;97316.13;;;10.51;89.18
9822;BME280;4950;46.042;14.472;2023-04-25T04:15:37;97320.50;;;10.50;88.52
9822;BME280;4950;46.042;14.472;2023-04-25T04:18:03;97316.47;;;10.47;89.11
9822;BME280;4950;46.042;14.472;2023-04-25T04:20:31;97319.25;;;10.46;88.79
9822;BME280;4950;46.042;14.472;2023-04-25T04:22:58;97317.47;;;10.46;88.94
9822;BME280;4950;46.042;14.472;2023-04-25T04:25:25;97324.09;;;10.49;89.18
9822;BME280;4950;46.042;14.472;2023-04-25T04:27:51;97328.28;;;10.50;89.35
9822;BME280;4950;46.042;14.472;2023-04-25T04:30:21;97333.28;;;10.52;89.25
9822;BME280;4950;46.042;14.472;2023-04-25T04:32:49;97331.88;;;10.49;89.40
9822;BME280;4950;46.042;14.472;2023-04-25T04:35:16;97325.69;;;10.50;89.52
9822;BME280;4950;46.042;14.472;2023-04-25T04:37:43;97326.50;;;10.51;89.89
9822;BME280;4950;46.042;14.472;2023-04-25T04:40:11;97321.72;;;10.54;89.86
9822;BME280;4950;46.042;14.472;2023-04-25T04:42:40;97317.53;;;10.53;89.66
9822;BME280;4950;46.042;14.472;2023-04-25T04:45:08;97318.94;;;10.56;89.34
9822;BME280;4950;46.042;14.472;2023-04-25T04:47:36;97318.50;;;10.52;89.43
9822;BME280;4950;46.042;14.472;2023-04-25T04:50:05;97321.50;;;10.49;89.35
9822;BME280;4950;46.042;14.472;2023-04-25T04:52:34;97327.91;;;10.53;89.47
9822;BME280;4950;46.042;14.472;2023-04-25T04:55:00;97325.31;;;10.53;89.52
9822;BME280;4950;46.042;14.472;2023-04-25T04:57:27;97322.53;;;10.55;89.98
9822;BME280;4950;46.042;14.472;2023-04-25T04:59:54;97318.91;;;10.49;90.82
9822;BME280;4950;46.042;14.472;2023-04-25T05:02:21;97320.56;;;10.57;90.83
9822;BME280;4950;46.042;14.472;2023-04-25T05:04:49;97330.00;;;10.64;90.61
9822;BME280;4950;46.042;14.472;2023-04-25T05:07:17;97323.75;;;10.59;90.93
9822;BME280;4950;46.042;14.472;2023-04-25T05:09:44;97328.19;;;10.65;90.77
9822;BME280;4950;46.042;14.472;2023-04-25T05:12:10;97316.41;;;10.62;91.13
9822;BME280;4950;46.042;14.472;2023-04-25T05:14:37;97324.38;;;10.61;91.16
9822;BME280;4950;46.042;14.472;2023-04-25T05:17:04;97327.41;;;10.64;90.77
9822;BME280;4950;46.042;14.472;2023-04-25T05:19:33;97326.91;;;10.54;91.13
9822;BME280;4950;46.042;14.472;2023-04-25T05:22:01;97320.56;;;10.57;90.98
9822;BME280;4950;46.042;14.472;2023-04-25T05:24:28;97317.13;;;10.56;90.93
9822;BME280;4950;46.042;14.472;2023-04-25T05:26:55;97315.72;;;10.54;90.99
9822;BME280;4950;46.042;14.472;2023-04-25T05:29:22;97314.13;;;10.53;91.42
9822;BME280;4950;46.042;14.472;2023-04-25T05:31:49;97307.75;;;10.55;91.45
9822;BME280;4950;46.042;14.472;2023-04-25T05:34:16;97309.78;;;10.60;91.94
9822;BME280;4950;46.042;14.472;2023-04-25T05:36:43;97302.78;;;10.60;91.60
9822;BME280;4950;46.042;14.472;2023-04-25T05:39:11;97300.19;;;10.60;91.57
9822;BME280;4950;46.042;14.472;2023-04-25T05:41:39;97302.44;;;10.63;90.43
9822;BME280;4950;46.042;14.472;2023-04-25T05:44:06;97297.56;;;10.54;90.53
9822;BME280;4950;46.042;14.472;2023-04-25T05:46:32;97295.34;;;10.51;91.08
9822;BME280;4950;46.042;14.472;2023-04-25T05:48:59;97297.53;;;10.47;91.16
9822;BME280;4950;46.042;14.472;2023-04-25T05:51:26;97290.97;;;10.51;90.64
9822;BME280;4950;46.042;14.472;2023-04-25T05:53:53;97284.94;;;10.29;91.45
9822;BME280;4950;46.042;14.472;2023-04-25T05:56:21;97280.28;;;10.18;92.67
9822;BME280;4950;46.042;14.472;2023-04-25T05:58:48;97274.34;;;10.24;92.76
9822;BME280;4950;46.042;14.472;2023-04-25T06:01:15;97276.31;;;10.22;92.63
9822;BME280;4950;46.042;14.472;2023-04-25T06:03:41;97272.72;;;10.23;91.97
9822;BME280;4950;46.042;14.472;2023-04-25T06:06:08;97281.94;;;10.25;92.72
9822;BME280;4950;46.042;14.472;2023-04-25T06:08:35;97277.75;;;10.24;92.79
9822;BME280;4950;46.042;14.472;2023-04-25T06:11:03;97278.13;;;10.21;92.96
9822;BME280;4950;46.042;14.472;2023-04-25T06:13:31;97285.97;;;10.28;93.50
9822;BME280;4950;46.042;14.472;2023-04-25T06:15:58;97290.00;;;10.31;93.21
9822;BME280;4950;46.042;14.472;2023-04-25T06:18:25;97292.84;;;10.36;93.41
9822;BME280;4950;46.042;14.472;2023-04-25T06:20:51;97295.69;;;10.41;92.84
9822;BME280;4950;46.042;14.472;2023-04-25T06:23:18;97285.53;;;10.46;93.07
9822;BME280;4950;46.042;14.472;2023-04-25T06:25:45;97292.56;;;10.52;92.46
9822;BME280;4950;46.042;14.472;2023-04-25T06:28:11;97285.44;;;10.61;91.47
9822;BME280;4950;46.042;14.472;2023-04-25T06:30:39;97289.69;;;10.69;92.05
9822;BME280;4950;46.042;14.472;2023-04-25T06:33:06;97289.63;;;10.62;91.75
9822;BME280;4950;46.042;14.472;2023-04-25T06:35:33;97280.47;;;10.66;92.21
9822;BME280;4950;46.042;14.472;2023-04-25T06:38:00;97279.75;;;10.72;92.06
9822;BME280;4950;46.042;14.472;2023-04-25T06:40:27;97290.75;;;10.81;92.07
9822;BME280;4950;46.042;14.472;2023-04-25T06:42:54;97281.22;;;10.88;91.80
9822;BME280;4950;46.042;14.472;2023-04-25T06:45:20;97283.47;;;10.98;91.68
9822;BME280;4950;46.042;14.472;2023-04-25T06:47:48;97288.47;;;10.99;90.34
9822;BME280;4950;46.042;14.472;2023-04-25T06:50:15;97287.94;;;11.11;89.13
9822;BME280;4950;46.042;14.472;2023-04-25T06:52:42;97292.16;;;11.12;89.08
9822;BME280;4950;46.042;14.472;2023-04-25T06:55:09;97298.56;;;11.16;88.24
9822;BME280;4950;46.042;14.472;2023-04-25T06:57:36;97303.91;;;11.07;88.15
9822;BME280;4950;46.042;14.472;2023-04-25T07:00:03;97302.50;;;11.05;87.83
9822;BME280;4950;46.042;14.472;2023-04-25T07:02:34;97296.06;;;11.01;87.21
9822;BME280;4950;46.042;14.472;2023-04-25T07:05:02;97302.13;;;11.08;87.19
9822;BME280;4950;46.042;14.472;2023-04-25T07:07:29;97303.91;;;11.07;86.68
9822;BME280;4950;46.042;14.472;2023-04-25T07:09:56;97305.91;;;11.05;86.40
9822;BME280;4950;46.042;14.472;2023-04-25T07:12:22;97304.25;;;10.98;86.07
9822;BME280;4950;46.042;14.472;2023-04-25T07:14:49;97300.38;;;10.87;86.12
9822;BME280;4950;46.042;14.472;2023-04-25T07:17:16;97294.41;;;10.86;86.70
9822;BME280;4950;46.042;14.472;2023-04-25T07:19:43;97289.84;;;10.95;87.24
9822;BME280;4950;46.042;14.472;2023-04-25T07:22:11;97289.47;;;10.98;87.75
9822;BME280;4950;46.042;14.472;2023-04-25T07:24:38;97281.91;;;11.03;87.72
9822;BME280;4950;46.042;14.472;2023-04-25T07:27:05;97285.38;;;11.17;86.22
9822;BME280;4950;46.042;14.472;2023-04-25T07:29:32;97283.19;;;11.21;84.21
9822;BME280;4950;46.042;14.472;2023-04-25T07:32:05;97280.59;;;11.21;84.47
9822;BME280;4950;46.042;14.472;2023-04-25T07:34:32;97282.00;;;11.23;85.53
9822;BME280;4950;46.042;14.472;2023-04-25T07:37:02;97286.25;;;11.31;84.63
9822;BME280;4950;46.042;14.472;2023-04-25T07:39:30;97279.06;;;11.33;83.74
9822;BME280;4950;46.042;14.472;2023-04-25T07:41:57;97286.88;;;11.40;84.35
9822;BME280;4950;46.042;14.472;2023-04-25T07:44:25;97281.31;;;11.50;84.01
9822;BME280;4950;46.042;14.472;2023-04-25T07:46:52;97274.31;;;11.50;83.85
9822;BME280;4950;46.042;14.472;2023-04-25T07:49:19;97274.53;;;11.55;84.14
9822;BME280;4950;46.042;14.472;2023-04-25T07:51:45;97279.13;;;11.60;84.53
9822;BME280;4950;46.042;14.472;2023-04-25T07:54:13;97279.97;;;11.67;84.13
9822;BME280;4950;46.042;14.472;2023-04-25T07:56:42;97288.59;;;11.74;84.36
9822;BME280;4950;46.042;14.472;2023-04-25T07:59:08;97282.78;;;11.79;84.07
9822;BME280;4950;46.042;14.472;2023-04-25T08:01:36;97283.63;;;11.86;83.85
9822;BME280;4950;46.042;14.472;2023-04-25T08:04:02;97285.66;;;11.91;83.38
9822;BME280;4950;46.042;14.472;2023-04-25T08:06:29;97279.88;;;12.02;83.96
9822;BME280;4950;46.042;14.472;2023-04-25T08:08:56;97279.47;;;12.12;84.08
9822;BME280;4950;46.042;14.472;2023-04-25T08:11:23;97279.28;;;12.13;82.97
9822;BME280;4950;46.042;14.472;2023-04-25T08:13:51;97275.69;;;12.14;82.34
9822;BME280;4950;46.042;14.472;2023-04-25T08:16:18;97271.28;;;12.21;81.28
9822;BME280;4950;46.042;14.472;2023-04-25T08:18:45;97274.50;;;12.23;81.22
9822;BME280;4950;46.042;14.472;2023-04-25T08:21:11;97274.47;;;12.30;81.27
9822;BME280;4950;46.042;14.472;2023-04-25T08:23:38;97269.28;;;12.43;81.00
9822;BME280;4950;46.042;14.472;2023-04-25T08:26:05;97265.47;;;12.53;81.23
9822;BME280;4950;46.042;14.472;2023-04-25T08:28:32;97263.44;;;12.61;81.43
9822;BME280;4950;46.042;14.472;2023-04-25T08:31:00;97266.66;;;12.70;81.12
9822;BME280;4950;46.042;14.472;2023-04-25T08:33:27;97265.63;;;12.84;80.54
9822;BME280;4950;46.042;14.472;2023-04-25T08:35:54;97268.19;;;12.98;77.39
9822;BME280;4950;46.042;14.472;2023-04-25T08:38:20;97273.19;;;13.06;77.00
9822;BME280;4950;46.042;14.472;2023-04-25T08:40:49;97272.75;;;13.16;76.24
9822;BME280;4950;46.042;14.472;2023-04-25T08:43:18;97268.72;;;13.33;72.00
9822;BME280;4950;46.042;14.472;2023-04-25T08:45:46;97270.72;;;13.38;71.69
9822;BME280;4950;46.042;14.472;2023-04-25T08:48:15;97267.69;;;13.41;71.50
9822;BME280;4950;46.042;14.472;2023-04-25T08:50:43;97271.09;;;13.41;72.42
9822;BME280;4950;46.042;14.472;2023-04-25T08:53:12;97268.66;;;13.47;73.69
9822;BME280;4950;46.042;14.472;2023-04-25T08:55:43;97273.50;;;13.43;73.74
9822;BME280;4950;46.042;14.472;2023-04-25T08:58:12;97278.06;;;13.54;73.67
9822;BME280;4950;46.042;14.472;2023-04-25T09:00:39;97282.66;;;13.59;73.08
9822;BME280;4950;46.042;14.472;2023-04-25T09:03:06;97278.84;;;13.55;72.19
9822;BME280;4950;46.042;14.472;2023-04-25T09:05:35;97281.44;;;13.61;71.05
9822;BME280;4950;46.042;14.472;2023-04-25T09:08:01;97276.00;;;13.63;71.71
9822;BME280;4950;46.042;14.472;2023-04-25T09:10:28;97276.63;;;13.65;71.07
9822;BME280;4950;46.042;14.472;2023-04-25T09:13:05;97277.94;;;13.74;70.20
9822;BME280;4950;46.042;14.472;2023-04-25T09:15:32;97281.19;;;13.70;69.37
9822;BME280;4950;46.042;14.472;2023-04-25T09:17:59;97276.38;;;13.73;69.39
9822;BME280;4950;46.042;14.472;2023-04-25T09:20:26;97277.69;;;13.82;70.33
9822;BME280;4950;46.042;14.472;2023-04-25T09:23:04;97275.88;;;13.90;70.50
9822;BME280;4950;46.042;14.472;2023-04-25T09:25:35;97274.44;;;13.94;70.19
9822;BME280;4950;46.042;14.472;2023-04-25T09:28:04;97268.94;;;14.02;70.53
9822;BME280;4950;46.042;14.472;2023-04-25T09:30:33;97269.50;;;14.11;70.14
9822;BME280;4950;46.042;14.472;2023-04-25T09:33:04;97278.72;;;14.13;69.36
9822;BME280;4950;46.042;14.472;2023-04-25T09:35:35;97279.69;;;14.19;69.97
9822;BME280;4950;46.042;14.472;2023-04-25T09:38:09;97278.13;;;14.11;68.97
9822;BME280;4950;46.042;14.472;2023-04-25T09:40:39;97269.44;;;14.17;68.77
9822;BME280;4950;46.042;14.472;2023-04-25T09:43:09;97273.19;;;14.28;68.70
9822;BME280;4950;46.042;14.472;2023-04-25T09:45:41;97270.53;;;14.35;68.47
9822;BME280;4950;46.042;14.472;2023-04-25T09:48:11;97266.72;;;14.37;68.39
9822;BME280;4950;46.042;14.472;2023-04-25T09:50:37;97268.09;;;14.40;68.34
9822;BME280;4950;46.042;14.472;2023-04-25T09:53:04;97257.94;;;14.50;68.01
9822;BME280;4950;46.042;14.472;2023-04-25T09:55:34;97256.09;;;14.57;68.18
9822;BME280;4950;46.042;14.472;2023-04-25T09:58:05;97251.59;;;14.65;67.49
9822;BME280;4950;46.042;14.472;2023-04-25T10:00:33;97244.13;;;14.68;67.11
9822;BME280;4950;46.042;14.472;2023-04-25T10:03:01;97243.50;;;14.73;66.63
9822;BME280;4950;46.042;14.472;2023-04-25T10:05:30;97241.47;;;14.75;66.55
9822;BME280;4950;46.042;14.472;2023-04-25T10:07:59;97234.00;;;14.78;65.50
9822;BME280;4950;46.042;14.472;2023-04-25T10:10:29;97238.56;;;14.83;64.33
9822;BME280;4950;46.042;14.472;2023-04-25T10:13:03;97229.94;;;14.83;64.81
9822;BME280;4950;46.042;14.472;2023-04-25T10:15:33;97228.50;;;14.87;65.29
9822;BME280;4950;46.042;14.472;2023-04-25T10:18:02;97222.22;;;14.88;65.33
9822;BME280;4950;46.042;14.472;2023-04-25T10:20:29;97220.16;;;14.96;64.51
9822;BME280;4950;46.042;14.472;2023-04-25T10:23:02;97214.03;;;15.03;63.73
9822;BME280;4950;46.042;14.472;2023-04-25T10:25:31;97212.66;;;15.00;61.95
9822;BME280;4950;46.042;14.472;2023-04-25T10:27:59;97209.53;;;15.10;60.46
9822;BME280;4950;46.042;14.472;2023-04-25T10:30:27;97198.63;;;15.13;59.00
9822;BME280;4950;46.042;14.472;2023-04-25T10:32:55;97198.13;;;15.04;60.47
9822;BME280;4950;46.042;14.472;2023-04-25T10:35:25;97207.66;;;14.98;60.94
9822;BME280;4950;46.042;14.472;2023-04-25T10:37:57;97196.41;;;14.98;61.56
9822;BME280;4950;46.042;14.472;2023-04-25T10:40:23;97190.34;;;14.97;61.11
9822;BME280;4950;46.042;14.472;2023-04-25T10:42:51;97189.25;;;15.05;61.67
9822;BME280;4950;46.042;14.472;2023-04-25T10:45:19;97192.59;;;15.12;61.85
9822;BME280;4950;46.042;14.472;2023-04-25T10:47:48;97189.56;;;15.15;61.99
9822;BME280;4950;46.042;14.472;2023-04-25T10:50:15;97194.34;;;15.18;60.45
9822;BME280;4950;46.042;14.472;2023-04-25T10:52:42;97188.31;;;15.18;59.55
9822;BME280;4950;46.042;14.472;2023-04-25T10:55:09;97184.66;;;15.19;59.42
9822;BME280;4950;46.042;14.472;2023-04-25T10:57:38;97180.47;;;15.18;59.80
9822;BME280;4950;46.042;14.472;2023-04-25T11:00:11;97179.44;;;15.19;59.38
9822;BME280;4950;46.042;14.472;2023-04-25T11:02:41;97169.69;;;15.26;60.12
9822;BME280;4950;46.042;14.472;2023-04-25T11:05:18;97176.53;;;15.27;60.65
9822;BME280;4950;46.042;14.472;2023-04-25T11:07:50;97175.41;;;15.35;60.19
9822;BME280;4950;46.042;14.472;2023-04-25T11:10:18;97171.78;;;15.36;59.88
9822;BME280;4950;46.042;14.472;2023-04-25T11:12:45;97169.53;;;15.39;59.41
9822;BME280;4950;46.042;14.472;2023-04-25T11:15:13;97169.75;;;15.38;59.43
9822;BME280;4950;46.042;14.472;2023-04-25T11:17:40;97159.63;;;15.42;60.00
9822;BME280;4950;46.042;14.472;2023-04-25T11:20:07;97160.44;;;15.42;59.08
9822;BME280;4950;46.042;14.472;2023-04-25T11:22:38;97163.97;;;15.48;59.17
9822;BME280;4950;46.042;14.472;2023-04-25T11:25:08;97143.41;;;15.51;59.08
9822;BME280;4950;46.042;14.472;2023-04-25T11:27:38;97150.13;;;15.59;58.86
9822;BME280;4950;46.042;14.472;2023-04-25T11:30:13;97150.22;;;15.64;58.05
9822;BME280;4950;46.042;14.472;2023-04-25T11:32:40;97152.78;;;15.71;56.99
9822;BME280;4950;46.042;14.472;2023-04-25T11:35:08;97147.09;;;15.74;56.71
9822;BME280;4950;46.042;14.472;2023-04-25T11:37:35;97142.47;;;15.76;56.27
9822;BME280;4950;46.042;14.472;2023-04-25T11:40:04;97142.22;;;15.77;56.45
9822;BME280;4950;46.042;14.472;2023-04-25T11:42:34;97142.78;;;15.79;56.46
9822;BME280;4950;46.042;14.472;2023-04-25T11:45:01;97141.00;;;15.80;56.46
9822;BME280;4950;46.042;14.472;2023-04-25T11:47:29;97142.91;;;15.85;55.98
9822;BME280;4950;46.042;14.472;2023-04-25T11:49:57;97139.03;;;15.75;52.73
9822;BME280;4950;46.042;14.472;2023-04-25T11:52:24;97136.41;;;15.75;52.91
9822;BME280;4950;46.042;14.472;2023-04-25T11:54:51;97137.44;;;15.74;54.17
9822;BME280;4950;46.042;14.472;2023-04-25T11:57:20;97139.84;;;15.76;54.73
9822;BME280;4950;46.042;14.472;2023-04-25T11:59:47;97134.50;;;15.83;55.18
9822;BME280;4950;46.042;14.472;2023-04-25T12:02:24;97138.25;;;15.87;53.48
9822;BME280;4950;46.042;14.472;2023-04-25T12:04:51;97135.84;;;15.85;52.02
9822;BME280;4950;46.042;14.472;2023-04-25T12:07:18;97128.91;;;15.79;53.73
9822;BME280;4950;46.042;14.472;2023-04-25T12:09:51;97129.47;;;15.81;55.34
9822;BME280;4950;46.042;14.472;2023-04-25T12:12:19;97129.59;;;15.74;56.12
9822;BME280;4950;46.042;14.472;2023-04-25T12:14:48;97124.38;;;15.74;55.83
9822;BME280;4950;46.042;14.472;2023-04-25T12:17:16;97119.34;;;15.73;56.54
9822;BME280;4950;46.042;14.472;2023-04-25T12:19:43;97125.72;;;15.77;56.83
9822;BME280;4950;46.042;14.472;2023-04-25T12:22:23;97108.19;;;15.77;56.40
9822;BME280;4950;46.042;14.472;2023-04-25T12:24:50;97114.25;;;15.78;56.71
9822;BME280;4950;46.042;14.472;2023-04-25T12:27:20;97115.47;;;15.75;55.72
9822;BME280;4950;46.042;14.472;2023-04-25T12:29:54;97108.44;;;15.76;55.33
9822;BME280;4950;46.042;14.472;2023-04-25T12:32:22;97101.59;;;15.75;54.13
9822;BME280;4950;46.042;14.472;2023-04-25T12:34:48;97101.16;;;15.78;54.39
9822;BME280;4950;46.042;14.472;2023-04-25T12:37:15;97096.94;;;15.77;54.70
9822;BME280;4950;46.042;14.472;2023-04-25T12:39:42;97091.25;;;15.80;55.12
9822;BME280;4950;46.042;14.472;2023-04-25T12:42:09;97088.97;;;15.84;56.21
9822;BME280;4950;46.042;14.472;2023-04-25T12:44:38;97086.81;;;15.81;55.25
9822;BME280;4950;46.042;14.472;2023-04-25T12:47:05;97091.47;;;15.78;55.38
9822;BME280;4950;46.042;14.472;2023-04-25T12:49:32;97084.78;;;15.83;54.89
9822;BME280;4950;46.042;14.472;2023-04-25T12:51:58;97085.47;;;15.78;54.62
9822;BME280;4950;46.042;14.472;2023-04-25T12:54:25;97086.25;;;15.78;54.95
9822;BME280;4950;46.042;14.472;2023-04-25T12:56:52;97094.16;;;15.72;55.33
9822;BME280;4950;46.042;14.472;2023-04-25T12:59:20;97088.34;;;15.70;55.98
9822;BME280;4950;46.042;14.472;2023-04-25T13:01:48;97095.34;;;15.76;55.59
9822;BME280;4950;46.042;14.472;2023-04-25T13:04:15;97080.44;;;15.76;55.30
9822;BME280;4950;46.042;14.472;2023-04-25T13:06:42;97089.09;;;15.77;55.58
9822;BME280;4950;46.042;14.472;2023-04-25T13:09:09;97087.25;;;15.77;56.07
9822;BME280;4950;46.042;14.472;2023-04-25T13:11:37;97088.75;;;15.73;55.77